Florestopolis, Brazil
Current Conditions -  °F | °C
As of 10:00 AM on Wednesday 22 Oct 2014 (Local Time) from SBLO Reporting Station
Clear Clear  
Wind Chill: 73°   Ceiling: Unl
Heat Index: 73°   Visibility: 6mi
Dew Point: 55°   Wind: 14mph
Humidity: 53%   Direction: 130°SE
Pressure: 30.15"   Gusts: NA
Location:  22.87°S, 51.39°W
Report Text: SBLO 221200Z 13012KT CAVOK 23/13 Q1021
Loading
Personal Weather Stations






























Interactive Weather Map
Tropical Storm Tracking
New forecast layout! Learn more

10-Day Weather Forecast

Advertisements
Track Severe Weather on mobile